createdAt,value
2022-10-16T00:00:37.650Z,95615.06
2022-10-16T00:03:04.766Z,95617.19
2022-10-16T00:05:31.664Z,95611.66
2022-10-16T00:07:58.207Z,95622.88
2022-10-16T00:10:25.596Z,95617.69
2022-10-16T00:12:52.211Z,95619.50
2022-10-16T00:15:18.942Z,95617.31
2022-10-16T00:17:45.561Z,95629.50
2022-10-16T00:20:12.516Z,95632.66
2022-10-16T00:22:39.159Z,95631.38
2022-10-16T00:25:05.844Z,95633.63
2022-10-16T00:27:32.441Z,95633.91
2022-10-16T00:32:30.811Z,95637.19
2022-10-16T00:34:57.417Z,95637.75
2022-10-16T00:37:24.036Z,95644.53
2022-10-16T00:39:50.622Z,95641.69
2022-10-16T00:42:18.769Z,95635.28
2022-10-16T00:44:48.483Z,95645.63
2022-10-16T00:47:23.585Z,95639.38
2022-10-16T00:49:51.797Z,95631.41
2022-10-16T00:52:18.783Z,95634.72
2022-10-16T00:54:47.051Z,95633.84
2022-10-16T00:59:42.255Z,95641.16
2022-10-16T01:02:10.664Z,95631.88
2022-10-16T01:04:46.141Z,95644.78
2022-10-16T01:07:15.745Z,95645.50
2022-10-16T01:09:50.880Z,95647.19
2022-10-16T01:12:24.172Z,95654.50
2022-10-16T01:15:02.139Z,95655.91
2022-10-16T01:17:35.666Z,95656.72
2022-10-16T01:20:12.156Z,95661.00
2022-10-16T01:22:44.206Z,95656.66
2022-10-16T01:25:13.840Z,95650.78
2022-10-16T01:27:41.896Z,95640.88
2022-10-16T01:30:10.800Z,95641.50
2022-10-16T01:32:43.425Z,95636.44
2022-10-16T01:35:25.185Z,95637.97
2022-10-16T01:38:03.042Z,95638.56
2022-10-16T01:40:30.910Z,95646.66
2022-10-16T01:43:00.804Z,95636.22
2022-10-16T01:45:29.527Z,95647.94
2022-10-16T01:47:56.734Z,95654.13
2022-10-16T01:50:25.424Z,95651.59
2022-10-16T01:52:53.607Z,95650.91
2022-10-16T01:55:24.941Z,95655.34
2022-10-16T01:57:52.795Z,95660.66
2022-10-16T02:00:21.396Z,95656.28
2022-10-16T02:02:50.705Z,95654.81
2022-10-16T02:05:21.236Z,95655.81
2022-10-16T02:07:48.456Z,95659.06
2022-10-16T02:10:15.061Z,95661.22
2022-10-16T02:12:43.901Z,95666.84
2022-10-16T02:15:10.547Z,95669.00
2022-10-16T02:17:37.088Z,95669.53
2022-10-16T02:20:05.423Z,95677.84
2022-10-16T02:22:44.000Z,95665.22
2022-10-16T02:25:16.867Z,95682.63
2022-10-16T02:27:50.591Z,95677.44
2022-10-16T02:30:34.080Z,95675.88
2022-10-16T02:33:03.255Z,95681.69
2022-10-16T02:35:31.290Z,95684.28
2022-10-16T02:37:59.359Z,95676.38
2022-10-16T02:40:26.904Z,95684.34
2022-10-16T02:42:54.061Z,95683.41
2022-10-16T02:45:22.189Z,95688.56
2022-10-16T02:47:48.841Z,95682.44
2022-10-16T02:50:15.596Z,95678.59
2022-10-16T02:52:42.224Z,95678.41
2022-10-16T02:55:09.035Z,95691.59
2022-10-16T02:57:37.794Z,95690.91
2022-10-16T03:00:08.282Z,95693.72
2022-10-16T03:02:34.854Z,95687.53
2022-10-16T03:05:01.816Z,95685.34
2022-10-16T03:07:28.551Z,95685.47
2022-10-16T03:09:56.445Z,95686.63
2022-10-16T03:12:23.258Z,95689.19
2022-10-16T03:14:49.905Z,95694.97
2022-10-16T03:17:17.842Z,95695.59
2022-10-16T03:19:44.607Z,95696.84
2022-10-16T03:22:11.211Z,95699.28
2022-10-16T03:24:37.774Z,95701.47
2022-10-16T03:27:04.460Z,95694.47
2022-10-16T03:29:31.096Z,95697.69
2022-10-16T03:31:57.664Z,95707.41
2022-10-16T03:34:24.439Z,95700.59
2022-10-16T03:36:51.468Z,95709.19
2022-10-16T03:39:18.332Z,95699.84
2022-10-16T03:41:44.980Z,95698.59
2022-10-16T03:44:11.586Z,95708.78
2022-10-16T03:46:38.319Z,95708.28
2022-10-16T03:49:07.516Z,95701.53
2022-10-16T03:51:36.308Z,95698.38
2022-10-16T03:54:02.916Z,95702.56
2022-10-16T03:56:29.478Z,95702.88
2022-10-16T03:58:56.091Z,95704.91
2022-10-16T04:01:22.744Z,95713.81
2022-10-16T04:03:49.365Z,95706.25
2022-10-16T04:06:15.970Z,95706.41
2022-10-16T04:08:45.724Z,95698.41
2022-10-16T04:11:12.319Z,95701.31
2022-10-16T04:13:38.910Z,95707.78
2022-10-16T04:16:05.891Z,95703.91
2022-10-16T04:18:32.483Z,95701.66
2022-10-16T04:21:03.290Z,95713.56
2022-10-16T04:23:29.832Z,95709.38
2022-10-16T04:25:56.465Z,95707.75
2022-10-16T04:28:23.199Z,95711.66
2022-10-16T04:30:49.952Z,95707.94
2022-10-16T04:33:16.511Z,95698.44
2022-10-16T04:35:43.152Z,95707.09
2022-10-16T04:38:09.902Z,95715.13
2022-10-16T04:40:37.699Z,95720.63
2022-10-16T04:43:04.909Z,95722.88
2022-10-16T04:45:31.479Z,95729.44
2022-10-16T04:47:59.077Z,95731.56
2022-10-16T04:50:26.388Z,95723.03
2022-10-16T04:53:05.656Z,95741.84
2022-10-16T04:55:32.198Z,95740.09
2022-10-16T04:57:59.330Z,95737.69
2022-10-16T05:00:26.028Z,95735.56
2022-10-16T05:02:52.838Z,95749.56
2022-10-16T05:05:20.496Z,95751.09
2022-10-16T05:07:48.234Z,95744.69
2022-10-16T05:10:14.830Z,95743.41
2022-10-16T05:12:41.466Z,95750.50
2022-10-16T05:15:08.380Z,95748.16
2022-10-16T05:17:34.956Z,95759.72
2022-10-16T05:20:01.528Z,95761.94
2022-10-16T05:22:28.131Z,95767.47
2022-10-16T05:24:55.440Z,95768.41
2022-10-16T05:27:22.922Z,95778.81
2022-10-16T05:29:49.837Z,95770.50
2022-10-16T05:32:18.328Z,95768.34
2022-10-16T05:34:45.383Z,95772.31
2022-10-16T05:37:12.558Z,95776.50
2022-10-16T05:39:39.430Z,95781.22
2022-10-16T05:42:06.427Z,95775.75
2022-10-16T05:47:00.588Z,95777.31
2022-10-16T05:49:27.484Z,95781.81
2022-10-16T05:51:54.082Z,95787.88
2022-10-16T05:54:20.691Z,95786.72
2022-10-16T05:56:47.453Z,95787.38
2022-10-16T05:59:14.134Z,95793.06
2022-10-16T06:01:41.890Z,95792.63
2022-10-16T06:04:09.245Z,95791.38
2022-10-16T06:06:37.378Z,95793.81
2022-10-16T06:09:04.541Z,95794.44
2022-10-16T06:11:32.134Z,95797.50
2022-10-16T06:14:01.171Z,95799.13
2022-10-16T06:16:28.500Z,95805.00
2022-10-16T06:18:56.928Z,95810.34
2022-10-16T06:21:27.602Z,95811.66
2022-10-16T06:23:55.368Z,95822.38
2022-10-16T06:26:23.191Z,95821.50
2022-10-16T06:28:50.507Z,95828.66
2022-10-16T06:31:17.611Z,95827.13
2022-10-16T06:33:44.664Z,95834.00
2022-10-16T06:36:13.104Z,95831.75
2022-10-16T06:38:39.675Z,95836.69
2022-10-16T06:41:07.130Z,95838.81
2022-10-16T06:43:36.154Z,95848.34
2022-10-16T06:46:03.762Z,95850.56
2022-10-16T06:48:31.729Z,95846.13
2022-10-16T06:50:59.423Z,95847.47
2022-10-16T06:53:26.235Z,95854.44
2022-10-16T06:55:52.890Z,95858.28
2022-10-16T06:58:19.835Z,95864.94
2022-10-16T07:00:46.463Z,95860.16
2022-10-16T07:03:13.058Z,95861.75
2022-10-16T07:05:40.540Z,95857.16
2022-10-16T07:08:07.659Z,95859.78
2022-10-16T07:10:34.409Z,95862.19
2022-10-16T07:13:01.144Z,95861.34
2022-10-16T07:15:28.253Z,95863.75
2022-10-16T07:17:55.120Z,95870.50
2022-10-16T07:20:21.764Z,95878.09
2022-10-16T07:22:48.355Z,95870.09
2022-10-16T07:25:15.924Z,95870.00
2022-10-16T07:27:42.672Z,95871.19
2022-10-16T07:30:09.506Z,95868.63
2022-10-16T07:32:36.164Z,95869.69
2022-10-16T07:35:02.980Z,95869.56
2022-10-16T07:37:30.862Z,95876.38
2022-10-16T07:39:59.020Z,95873.44
2022-10-16T07:42:25.692Z,95868.94
2022-10-16T07:44:52.249Z,95872.50
2022-10-16T07:47:18.977Z,95878.03
2022-10-16T07:49:45.571Z,95878.31
2022-10-16T07:52:12.190Z,95883.69
2022-10-16T07:54:38.824Z,95874.69
2022-10-16T07:57:05.399Z,95881.66
2022-10-16T07:59:32.882Z,95882.13
2022-10-16T08:01:59.688Z,95884.50
2022-10-16T08:04:26.308Z,95882.13
2022-10-16T08:06:52.993Z,95880.41
2022-10-16T08:09:20.644Z,95886.81
2022-10-16T08:11:47.272Z,95893.31
2022-10-16T08:14:13.880Z,95889.47
2022-10-16T08:16:40.432Z,95894.84
2022-10-16T08:19:07.066Z,95900.91
2022-10-16T08:21:33.736Z,95884.88
2022-10-16T08:24:01.294Z,95889.88
2022-10-16T08:26:28.419Z,95882.56
2022-10-16T08:28:55.931Z,95882.25
2022-10-16T08:31:22.731Z,95874.16
2022-10-16T08:33:49.834Z,95879.97
2022-10-16T08:36:17.062Z,95876.56
2022-10-16T08:38:44.088Z,95873.00
2022-10-16T08:41:22.781Z,95880.38
2022-10-16T08:43:52.333Z,95881.53
2022-10-16T08:46:30.739Z,95874.28
2022-10-16T08:49:00.212Z,95881.47
2022-10-16T08:51:29.250Z,95882.31
2022-10-16T08:53:57.560Z,95891.75
2022-10-16T08:56:24.776Z,95894.03
2022-10-16T08:58:55.264Z,95888.78
2022-10-16T09:01:30.700Z,95892.53
2022-10-16T09:04:16.355Z,95884.66
2022-10-16T09:06:43.589Z,95895.34
2022-10-16T09:09:21.328Z,95890.34
2022-10-16T09:11:50.838Z,95887.41
2022-10-16T09:14:38.237Z,95884.59
2022-10-16T09:17:22.313Z,95885.75
2022-10-16T09:20:04.001Z,95886.66
2022-10-16T09:22:32.549Z,95889.81
2022-10-16T09:25:11.862Z,95890.75
2022-10-16T09:27:39.004Z,95887.31
2022-10-16T09:30:14.509Z,95893.78
2022-10-16T09:32:44.868Z,95880.38
2022-10-16T09:35:16.217Z,95883.13
2022-10-16T09:37:43.878Z,95890.88
2022-10-16T09:40:15.653Z,95883.28
2022-10-16T09:42:42.379Z,95878.31
2022-10-16T09:45:20.992Z,95883.97
2022-10-16T09:47:47.611Z,95878.75
2022-10-16T09:50:27.394Z,95879.63
2022-10-16T09:53:06.341Z,95873.69
2022-10-16T09:55:33.145Z,95829.56
2022-10-16T09:58:01.002Z,95870.47
2022-10-16T10:00:29.189Z,95869.94
2022-10-16T10:05:29.348Z,95870.28
2022-10-16T10:08:00.183Z,95874.53
2022-10-16T10:10:28.666Z,95862.19
2022-10-16T10:12:56.265Z,95858.72
2022-10-16T10:15:25.148Z,95855.91
2022-10-16T10:17:53.189Z,95859.72
2022-10-16T10:20:28.773Z,95857.63
2022-10-16T10:22:57.005Z,95857.09
2022-10-16T10:25:30.644Z,95856.50
2022-10-16T10:28:04.755Z,95855.44
2022-10-16T10:30:31.407Z,95855.19
2022-10-16T10:33:21.746Z,95860.03
2022-10-16T10:35:55.591Z,95850.69
2022-10-16T10:38:22.328Z,95846.97
2022-10-16T10:40:54.869Z,95841.69
2022-10-16T10:43:24.305Z,95841.38
2022-10-16T10:45:55.278Z,95845.00
2022-10-16T10:48:37.341Z,95842.53
2022-10-16T10:51:25.182Z,95848.50
2022-10-16T10:54:23.874Z,95838.81
2022-10-16T10:57:05.708Z,95839.25
2022-10-16T10:59:47.411Z,95844.63
2022-10-16T11:02:23.040Z,95837.00
2022-10-16T11:05:05.082Z,95834.66
2022-10-16T11:07:40.830Z,95822.31
2022-10-16T11:10:15.638Z,95828.53
2022-10-16T11:12:54.004Z,95825.88
2022-10-16T11:15:26.892Z,95821.16
2022-10-16T11:18:08.922Z,95813.44
2022-10-16T11:20:41.384Z,95822.00
2022-10-16T11:23:29.923Z,95827.25
2022-10-16T11:25:58.847Z,95814.09
2022-10-16T11:28:31.037Z,95811.63
2022-10-16T11:31:01.477Z,95808.66
2022-10-16T11:33:32.602Z,95818.75
2022-10-16T11:35:59.285Z,95815.63
2022-10-16T11:38:40.100Z,95815.25
2022-10-16T11:41:12.716Z,95814.31
2022-10-16T11:43:42.362Z,95808.59
2022-10-16T11:46:29.213Z,95821.81
2022-10-16T11:49:04.515Z,95806.94
2022-10-16T11:51:54.301Z,95808.44
2022-10-16T11:54:39.629Z,95817.81
2022-10-16T11:57:18.806Z,95817.63
2022-10-16T11:59:51.398Z,95812.13
2022-10-16T12:02:32.523Z,95810.19
2022-10-16T12:05:07.251Z,95818.22
2022-10-16T12:07:37.817Z,95819.38
2022-10-16T12:10:11.721Z,95820.31
2022-10-16T12:12:40.220Z,95821.19
2022-10-16T12:15:17.777Z,95826.31
2022-10-16T12:17:46.371Z,95817.66
2022-10-16T12:20:12.926Z,95823.13
2022-10-16T12:22:48.660Z,95823.63
2022-10-16T12:25:47.673Z,95819.00
2022-10-16T12:28:17.410Z,95815.28
2022-10-16T12:30:52.894Z,95818.47
2022-10-16T12:33:27.213Z,95826.31
2022-10-16T12:35:54.972Z,95823.16
2022-10-16T12:38:25.635Z,95824.25
2022-10-16T12:41:04.866Z,95826.72
2022-10-16T12:43:38.078Z,95829.19
2022-10-16T12:46:24.886Z,95835.72
2022-10-16T12:49:08.295Z,95839.69
2022-10-16T12:51:36.938Z,95842.13
2022-10-16T12:54:21.377Z,95797.13
2022-10-16T12:56:59.639Z,95843.31
2022-10-16T12:59:46.965Z,95838.03
2022-10-16T13:02:29.016Z,95839.88
2022-10-16T13:04:55.597Z,95843.25
2022-10-16T13:07:31.079Z,95840.84
2022-10-16T13:10:00.827Z,95853.59
2022-10-16T13:12:30.449Z,95843.16
2022-10-16T13:15:13.390Z,95847.13
2022-10-16T13:17:49.798Z,95858.66
2022-10-16T13:20:20.082Z,95863.66
2022-10-16T13:22:55.308Z,95849.13
2022-10-16T13:25:42.530Z,95850.34
2022-10-16T13:28:10.989Z,95852.31
2022-10-16T13:30:37.503Z,95851.69
2022-10-16T13:33:07.625Z,95854.63
2022-10-16T13:35:35.554Z,95852.34
2022-10-16T13:38:05.125Z,95853.34
2022-10-16T13:40:31.846Z,95857.19
2022-10-16T13:43:00.783Z,95865.56
2022-10-16T13:45:27.434Z,95861.78
2022-10-16T13:48:04.342Z,95865.47
2022-10-16T13:50:31.068Z,95864.63
2022-10-16T13:53:16.511Z,95865.19
2022-10-16T13:55:43.424Z,95868.09
2022-10-16T13:58:13.956Z,95867.25
2022-10-16T14:00:41.136Z,95877.47
2022-10-16T14:03:17.464Z,95868.81
2022-10-16T14:05:49.259Z,95861.84
2022-10-16T14:08:15.928Z,95867.84
2022-10-16T14:10:43.560Z,95870.84
2022-10-16T14:13:17.571Z,95867.00
2022-10-16T14:15:47.755Z,95877.59
2022-10-16T14:18:19.601Z,95880.25
2022-10-16T14:20:46.394Z,95874.19
2022-10-16T14:23:22.046Z,95878.53
2022-10-16T14:25:49.128Z,95880.44
2022-10-16T14:28:17.886Z,95883.53
2022-10-16T14:30:52.322Z,95882.72
2022-10-16T14:33:31.196Z,95883.41
2022-10-16T14:36:03.516Z,95882.63
2022-10-16T14:38:30.602Z,95881.44
2022-10-16T14:40:58.537Z,95879.41
2022-10-16T14:43:48.669Z,95891.34
2022-10-16T14:48:49.878Z,95886.09
2022-10-16T14:51:20.069Z,95890.28
2022-10-16T14:53:47.315Z,95886.88
2022-10-16T14:56:24.684Z,95896.72
2022-10-16T14:58:51.949Z,95900.91
2022-10-16T15:01:19.104Z,95906.03
2022-10-16T15:03:46.280Z,95897.72
2022-10-16T15:06:13.664Z,95904.28
2022-10-16T15:08:40.791Z,95890.16
2022-10-16T15:11:13.608Z,95889.09
2022-10-16T15:13:40.305Z,95890.84
2022-10-16T15:16:09.646Z,95895.03
2022-10-16T15:18:36.243Z,95895.91
2022-10-16T15:21:02.853Z,95900.47
2022-10-16T15:23:29.888Z,95893.03
2022-10-16T15:25:56.897Z,95899.94
2022-10-16T15:28:24.272Z,95896.06
2022-10-16T15:30:52.533Z,95895.88
2022-10-16T15:33:20.440Z,95899.25
2022-10-16T15:35:48.376Z,95904.13
2022-10-16T15:38:15.295Z,95903.38
2022-10-16T15:40:42.333Z,95899.00
2022-10-16T15:43:09.726Z,95896.03
2022-10-16T15:45:36.394Z,95903.00
2022-10-16T15:48:03.180Z,95893.84
2022-10-16T15:50:31.915Z,95906.22
2022-10-16T15:52:58.913Z,95902.66
2022-10-16T15:55:25.620Z,95904.41
2022-10-16T15:57:52.160Z,95907.22
2022-10-16T16:00:24.088Z,95905.63
2022-10-16T16:02:52.543Z,95903.88
2022-10-16T16:05:19.665Z,95912.56
2022-10-16T16:07:46.341Z,95913.13
2022-10-16T16:10:13.249Z,95927.31
2022-10-16T16:12:40.026Z,95920.94
2022-10-16T16:15:08.106Z,95920.94
2022-10-16T16:17:35.478Z,95921.59
2022-10-16T16:20:02.155Z,95925.44
2022-10-16T16:22:29.401Z,95928.88
2022-10-16T16:24:56.311Z,95931.91
2022-10-16T16:27:26.000Z,95930.00
2022-10-16T16:29:53.166Z,95929.72
2022-10-16T16:32:19.734Z,95941.41
2022-10-16T16:34:47.743Z,95942.66
2022-10-16T16:37:14.547Z,95942.66
2022-10-16T16:39:41.251Z,95955.22
2022-10-16T16:42:11.062Z,95973.31
2022-10-16T16:44:37.783Z,95974.00
2022-10-16T16:47:05.214Z,95976.53
2022-10-16T16:49:31.845Z,95982.13
2022-10-16T16:51:58.509Z,95981.34
2022-10-16T16:54:25.395Z,95991.09
2022-10-16T16:56:52.187Z,95997.63
2022-10-16T16:59:20.856Z,96004.44
2022-10-16T17:01:48.470Z,96006.44
2022-10-16T17:04:20.021Z,96002.25
2022-10-16T17:06:46.705Z,96004.53
2022-10-16T17:09:16.241Z,96002.84
2022-10-16T17:11:45.421Z,96006.41
2022-10-16T17:14:12.537Z,96008.88
2022-10-16T17:16:39.870Z,96005.63
2022-10-16T17:19:08.299Z,96006.66
2022-10-16T17:21:35.175Z,96011.00
2022-10-16T17:24:02.199Z,96007.94
2022-10-16T17:26:28.898Z,96019.59
2022-10-16T17:28:57.695Z,96020.41
2022-10-16T17:31:30.917Z,96028.44
2022-10-16T17:34:01.241Z,96031.22
2022-10-16T17:36:31.010Z,96031.03
2022-10-16T17:39:04.727Z,96036.84
2022-10-16T17:41:31.904Z,96032.38
2022-10-16T17:43:58.581Z,96031.19
2022-10-16T17:46:25.270Z,96029.59
2022-10-16T17:48:54.503Z,96027.53
2022-10-16T17:51:27.252Z,96027.91
2022-10-16T17:53:56.481Z,96031.97
2022-10-16T17:56:23.687Z,96036.28
2022-10-16T17:58:51.893Z,96039.25
2022-10-16T18:01:20.399Z,96036.31
2022-10-16T18:03:54.928Z,96046.31
2022-10-16T18:06:22.736Z,96041.47
2022-10-16T18:08:50.518Z,96044.59
2022-10-16T18:11:17.174Z,96049.66
2022-10-16T18:13:43.801Z,96041.50
2022-10-16T18:16:11.794Z,96054.59
2022-10-16T18:18:39.074Z,96049.44
2022-10-16T18:21:09.174Z,96051.16
2022-10-16T18:23:36.328Z,96054.56
2022-10-16T18:26:03.787Z,96064.69
2022-10-16T18:28:30.627Z,96069.31
2022-10-16T18:30:58.292Z,96071.06
2022-10-16T18:33:25.339Z,96072.44
2022-10-16T18:35:52.565Z,96072.53
2022-10-16T18:38:19.457Z,96076.72
2022-10-16T18:40:46.422Z,96078.72
2022-10-16T18:43:12.969Z,96081.84
2022-10-16T18:45:39.519Z,96083.78
2022-10-16T18:48:06.751Z,96086.19
2022-10-16T18:50:33.334Z,96087.25
2022-10-16T18:53:00.040Z,96085.97
2022-10-16T18:55:30.911Z,96092.25
2022-10-16T18:57:57.706Z,96093.97
2022-10-16T19:00:24.270Z,96099.38
2022-10-16T19:02:50.903Z,96104.56
2022-10-16T19:05:17.611Z,96109.22
2022-10-16T19:07:45.666Z,96115.22
2022-10-16T19:10:12.273Z,96113.88
2022-10-16T19:12:38.858Z,96120.41
2022-10-16T19:15:05.759Z,96120.41
2022-10-16T19:17:32.409Z,96120.78
2022-10-16T19:19:59.088Z,96126.72
2022-10-16T19:22:40.884Z,96126.09
2022-10-16T19:25:08.952Z,96126.91
2022-10-16T19:27:35.832Z,96142.34
2022-10-16T19:30:02.512Z,96139.28
2022-10-16T19:32:29.783Z,96146.25
2022-10-16T19:34:57.095Z,96143.06
2022-10-16T19:37:25.914Z,96144.25
2022-10-16T19:39:52.534Z,96139.28
2022-10-16T19:42:19.455Z,96134.91
2022-10-16T19:44:46.723Z,96136.88
2022-10-16T19:47:13.364Z,96143.75
2022-10-16T19:49:39.982Z,96142.97
2022-10-16T19:52:06.602Z,96145.09
2022-10-16T19:54:35.820Z,96150.78
2022-10-16T19:57:02.543Z,96149.41
2022-10-16T19:59:29.169Z,96148.34
2022-10-16T20:01:55.957Z,96159.16
2022-10-16T20:04:22.651Z,96163.81
2022-10-16T20:06:49.360Z,96162.28
2022-10-16T20:09:16.016Z,96167.19
2022-10-16T20:11:42.672Z,96156.66
2022-10-16T20:14:10.043Z,96163.81
2022-10-16T20:16:38.031Z,96163.53
2022-10-16T20:19:04.740Z,96164.63
2022-10-16T20:21:33.323Z,96162.19
2022-10-16T20:24:00.831Z,96168.44
2022-10-16T20:26:27.624Z,96172.16
2022-10-16T20:28:54.658Z,96166.31
2022-10-16T20:31:22.875Z,96171.88
2022-10-16T20:33:49.971Z,96178.19
2022-10-16T20:36:16.928Z,96181.41
2022-10-16T20:38:43.586Z,96183.13
2022-10-16T20:41:10.571Z,96186.13
2022-10-16T20:43:39.620Z,96190.41
2022-10-16T20:46:08.975Z,96186.28
2022-10-16T20:48:35.810Z,96194.66
2022-10-16T20:51:38.040Z,96189.50
2022-10-16T20:54:05.581Z,96186.28
2022-10-16T20:56:33.208Z,96192.31
2022-10-16T20:59:01.899Z,96188.09
2022-10-16T21:01:29.218Z,96190.03
2022-10-16T21:03:58.056Z,96191.69
2022-10-16T21:06:25.077Z,96191.69
2022-10-16T21:08:51.730Z,96184.66
2022-10-16T21:11:19.711Z,96179.81
2022-10-16T21:13:46.734Z,96186.25
2022-10-16T21:16:15.471Z,96184.81
2022-10-16T21:18:44.666Z,96181.75
2022-10-16T21:21:19.657Z,96179.03
2022-10-16T21:23:46.507Z,96178.25
2022-10-16T21:26:13.213Z,96184.38
2022-10-16T21:28:39.893Z,96180.69
2022-10-16T21:31:14.185Z,96187.28
2022-10-16T21:33:42.363Z,96181.88
2022-10-16T21:36:12.682Z,96178.94
2022-10-16T21:38:40.566Z,96186.09
2022-10-16T21:41:19.761Z,96183.84
2022-10-16T21:43:46.579Z,96187.06
2022-10-16T21:46:13.839Z,96187.41
2022-10-16T21:48:42.574Z,96194.94
2022-10-16T21:51:09.869Z,96195.03
2022-10-16T21:53:36.645Z,96196.69
2022-10-16T21:56:03.559Z,96205.13
2022-10-16T21:58:34.365Z,96206.38
2022-10-16T22:01:09.735Z,96206.69
2022-10-16T22:03:36.398Z,96150.63
2022-10-16T22:06:06.614Z,96211.56
2022-10-16T22:08:34.210Z,96217.72
2022-10-16T22:11:22.353Z,96220.63
2022-10-16T22:13:54.352Z,96222.56
2022-10-16T22:16:24.757Z,96220.00
2022-10-16T22:18:52.785Z,96232.59
2022-10-16T22:21:19.376Z,96232.59
2022-10-16T22:23:45.999Z,96233.31
2022-10-16T22:26:12.767Z,96239.09
2022-10-16T22:28:40.133Z,96236.84
2022-10-16T22:31:09.159Z,96248.13
2022-10-16T22:33:36.088Z,96241.78
2022-10-16T22:36:06.289Z,96245.47
2022-10-16T22:38:33.639Z,96241.84
2022-10-16T22:41:08.544Z,96247.69
2022-10-16T22:43:36.307Z,96252.06
2022-10-16T22:46:03.901Z,96251.38
2022-10-16T22:48:30.647Z,96247.06
2022-10-16T22:50:57.342Z,96251.81
2022-10-16T22:53:23.879Z,96252.22
2022-10-16T22:55:50.571Z,96248.44
2022-10-16T22:58:17.309Z,96243.13
2022-10-16T23:00:44.818Z,96255.69
2022-10-16T23:03:11.589Z,96253.69
2022-10-16T23:05:39.413Z,96247.41
2022-10-16T23:08:06.181Z,96249.28
2022-10-16T23:10:33.655Z,96250.81
2022-10-16T23:13:00.235Z,96254.69
2022-10-16T23:15:26.830Z,96250.88
2022-10-16T23:17:53.457Z,96259.25
2022-10-16T23:20:20.009Z,96251.38
2022-10-16T23:22:46.595Z,96256.97
2022-10-16T23:25:13.195Z,96261.13
2022-10-16T23:27:39.801Z,96263.13
2022-10-16T23:30:09.265Z,96274.09
2022-10-16T23:32:35.895Z,96274.75
2022-10-16T23:35:02.514Z,96279.16
2022-10-16T23:37:29.152Z,96279.47
2022-10-16T23:39:55.698Z,96277.25
2022-10-16T23:42:22.322Z,96278.84
2022-10-16T23:44:49.294Z,96279.53
2022-10-16T23:47:15.892Z,96273.69
2022-10-16T23:49:42.431Z,96283.00
2022-10-16T23:52:09.262Z,96282.41
2022-10-16T23:54:35.853Z,96283.31
2022-10-16T23:57:02.464Z,96288.38
2022-10-16T23:59:29.061Z,96288.06
